Time;durP1;ratioP1;P1;durP2;ratioP2;P2;SDS_P1;SDS_P2;PMS_P1;PMS_P2;Temp;Humidity;BMP_temperature;BMP_pressure;BME280_temperature;BME280_humidity;BME280_pressure;Samples;Min_cycle;Max_cycle;Signal;HPM_P1;HPM_P2
2023/04/17 00:00:17;;;;;;;2.80;2.63;;;;;;;11.19;100.00;63152.28;6263715;22;20169;-79
2023/04/17 00:02:45;;;;;;;2.67;2.40;;;;;;;11.30;100.00;63166.22;6261661;23;20193;-79
2023/04/17 00:05:12;;;;;;;4.70;2.60;;;;;;;11.39;100.00;63175.53;6264021;23;20176;-79
2023/04/17 00:07:40;;;;;;;2.95;2.83;;;;;;;11.21;100.00;63151.28;6262902;23;20360;-79
2023/04/17 00:10:09;;;;;;;2.92;2.70;;;;;;;11.20;100.00;63150.25;6261500;22;20185;-79
2023/04/17 00:12:37;;;;;;;3.90;2.70;;;;;;;11.24;100.00;63160.00;6262281;22;20192;-80
2023/04/17 00:15:05;;;;;;;2.60;2.40;;;;;;;11.15;100.00;63145.06;6262310;23;20201;-80
2023/04/17 00:17:32;;;;;;;3.08;2.80;;;;;;;11.14;100.00;63149.13;6260547;23;20205;-79
2023/04/17 00:19:59;;;;;;;5.25;2.70;;;;;;;11.18;100.00;63153.28;6263183;23;20164;-79
2023/04/17 00:22:26;;;;;;;3.55;2.92;;;;;;;11.24;100.00;63154.38;6261394;23;20204;-79
2023/04/17 00:24:53;;;;;;;2.67;2.47;;;;;;;11.30;100.00;63163.66;6260317;23;20180;-79
2023/04/17 00:27:19;;;;;;;3.10;2.88;;;;;;;11.12;100.00;63144.50;6262068;23;20191;-79
2023/04/17 00:29:48;;;;;;;3.17;2.88;;;;;;;10.88;100.00;63119.66;6264081;23;20172;-79
2023/04/17 00:32:14;;;;;;;2.88;2.60;;;;;;;10.82;100.00;63116.50;6261171;23;20216;-78
2023/04/17 00:34:41;;;;;;;2.80;2.58;;;;;;;10.72;100.00;63103.09;6262430;22;20262;-79
2023/04/17 00:37:08;;;;;;;4.65;3.22;;;;;;;10.64;100.00;63097.88;6259883;23;20199;-78
2023/04/17 00:39:35;;;;;;;4.65;2.88;;;;;;;10.62;100.00;63095.81;6261529;23;20184;-78
2023/04/17 00:42:02;;;;;;;7.03;3.25;;;;;;;10.60;100.00;63088.13;6264417;23;20227;-78
2023/04/17 00:44:29;;;;;;;5.32;3.38;;;;;;;10.67;100.00;63092.81;6263292;23;20180;-78
2023/04/17 00:46:57;;;;;;;5.25;4.00;;;;;;;10.63;100.00;63091.25;6261378;23;20539;-79
2023/04/17 00:49:25;;;;;;;6.47;3.70;;;;;;;10.65;100.00;63098.91;6261786;23;20191;-79
2023/04/17 00:51:53;;;;;;;4.57;3.80;;;;;;;10.76;100.00;63107.25;6261200;23;20192;-79
2023/04/17 00:54:23;;;;;;;5.10;3.78;;;;;;;10.83;100.00;63115.00;6261240;23;20267;-78
2023/04/17 00:56:51;;;;;;;8.15;4.10;;;;;;;10.84;100.00;63116.03;6262712;22;20318;-78
2023/04/17 00:59:18;;;;;;;5.53;4.00;;;;;;;10.84;100.00;63115.50;6259763;22;20225;-78
2023/04/17 01:01:45;;;;;;;10.02;4.72;;;;;;;10.80;100.00;63109.38;6260460;23;20283;-79
2023/04/17 01:04:14;;;;;;;4.53;3.67;;;;;;;10.83;100.00;63115.00;6262387;23;20227;-78
2023/04/17 01:06:41;;;;;;;9.00;4.30;;;;;;;10.98;100.00;63135.09;6261478;23;20250;-78
2023/04/17 01:09:08;;;;;;;8.48;3.90;;;;;;;10.95;100.00;63124.38;6263930;22;20231;-79
2023/04/17 01:11:36;;;;;;;3.92;3.38;;;;;;;10.94;100.00;63126.38;6260181;23;20173;-79
2023/04/17 01:14:03;;;;;;;7.45;4.07;;;;;;;10.80;100.00;63114.47;6261820;22;20183;-78
2023/04/17 01:16:30;;;;;;;4.85;4.32;;;;;;;10.76;100.00;63110.31;6260189;22;20168;-78
2023/04/17 01:18:57;;;;;;;4.55;3.80;;;;;;;10.69;100.00;63097.44;6262728;23;20173;-78
2023/04/17 01:21:26;;;;;;;5.57;4.50;;;;;;;10.68;100.00;63098.97;6261662;23;20234;-78
2023/04/17 01:23:53;;;;;;;6.88;4.35;;;;;;;10.62;100.00;63093.28;6260008;23;20184;-77
2023/04/17 01:26:23;;;;;;;6.82;4.30;;;;;;;10.67;100.00;63092.81;6262030;23;20199;-79
2023/04/17 01:28:51;;;;;;;11.93;4.05;;;;;;;10.59;100.00;63090.16;6260289;23;20195;-78
2023/04/17 01:31:18;;;;;;;14.75;6.07;;;;;;;10.73;100.00;63104.13;6258346;23;20207;-79
2023/04/17 01:33:45;;;;;;;6.68;4.60;;;;;;;10.67;100.00;63098.44;6263485;23;20173;-79
2023/04/17 01:36:12;;;;;;;9.20;4.55;;;;;;;10.76;100.00;63107.25;6259351;23;20201;-79
2023/04/17 01:38:39;;;;;;;9.90;5.00;;;;;;;10.64;100.00;63095.34;6259677;22;20238;-78
2023/04/17 01:41:09;;;;;;;8.07;4.55;;;;;;;10.65;100.00;63093.31;6260904;23;20172;-78
2023/04/17 01:43:42;;;;;;;9.57;5.05;;;;;;;10.60;100.00;63091.19;6259269;23;20248;-79
2023/04/17 01:46:10;;;;;;;9.35;5.60;;;;;;;10.49;100.00;63080.31;6260980;23;20169;-78
2023/04/17 01:48:37;;;;;;;10.73;5.00;;;;;;;10.55;100.00;63080.41;6260594;23;20218;-79
2023/04/17 01:51:04;;;;;;;9.35;5.10;;;;;;;10.52;100.00;63082.91;6258028;22;20169;-78
2023/04/17 01:53:33;;;;;;;9.00;5.57;;;;;;;10.59;100.00;63089.66;6258328;22;20192;-79
2023/04/17 01:56:00;;;;;;;7.40;5.40;;;;;;;10.66;100.00;63091.78;6260691;23;20227;-78
2023/04/17 01:58:28;;;;;;;10.13;5.30;;;;;;;10.64;100.00;63097.38;6260002;23;20235;-78
2023/04/17 02:00:56;;;;;;;8.00;5.90;;;;;;;10.76;100.00;63107.25;6259904;23;20169;-79
2023/04/17 02:03:23;;;;;;;7.25;5.35;;;;;;;10.81;100.00;63109.88;6261400;22;20414;-78
2023/04/17 02:05:51;;;;;;;9.55;6.07;;;;;;;10.85;100.00;63114.53;6262192;22;20508;-78
2023/04/17 02:08:17;;;;;;;7.20;6.35;;;;;;;10.89;100.00;63120.72;6257975;23;20211;-78
2023/04/17 02:10:45;;;;;;;11.85;6.30;;;;;;;10.99;100.00;63133.59;6259834;23;20235;-78
2023/04/17 02:13:12;;;;;;;7.03;6.32;;;;;;;11.08;100.00;63143.44;6261839;23;20192;-78
2023/04/17 02:15:39;;;;;;;11.48;6.05;;;;;;;11.01;100.00;63131.09;6258440;22;20204;-78
2023/04/17 02:18:08;;;;;;;7.15;6.03;;;;;;;11.14;100.00;63144.56;6261141;23;20220;-78
2023/04/17 02:20:37;;;;;;;6.80;5.78;;;;;;;11.15;100.00;63148.13;6263274;23;20173;-78
2023/04/17 02:23:05;;;;;;;8.30;6.13;;;;;;;11.10;100.00;63142.44;6260752;22;20201;-78
2023/04/17 02:25:32;;;;;;;11.48;6.57;;;;;;;11.05;100.00;63139.81;6260683;23;20219;-79
2023/04/17 02:27:59;;;;;;;7.40;5.80;;;;;;;10.95;100.00;63129.97;6259542;22;20252;-79
2023/04/17 02:30:27;;;;;;;7.72;5.30;;;;;;;11.04;100.00;63134.22;6260982;23;20168;-78
2023/04/17 02:32:54;;;;;;;10.65;6.32;;;;;;;10.98;100.00;63132.56;6259892;22;20556;-78
2023/04/17 02:35:25;;;;;;;7.28;6.57;;;;;;;10.96;100.00;63133.06;6259357;22;20200;-77
2023/04/17 02:37:52;;;;;;;8.98;6.28;;;;;;;10.96;100.00;63133.56;6260713;23;20429;-78
2023/04/17 02:40:19;;;;;;;8.45;6.07;;;;;;;10.91;100.00;63118.19;6258723;23;20195;-78
2023/04/17 02:42:46;;;;;;;8.80;5.50;;;;;;;10.74;100.00;63108.22;6258983;23;20189;-78
2023/04/17 02:45:13;;;;;;;7.28;6.13;;;;;;;10.83;100.00;63115.00;6260799;23;20169;-79
2023/04/17 02:47:41;;;;;;;9.88;6.68;;;;;;;10.95;100.00;63127.44;6261744;23;20196;-79
2023/04/17 02:50:09;;;;;;;7.88;5.38;;;;;;;10.94;100.00;63126.38;6259645;23;20252;-77
2023/04/17 02:52:37;;;;;;;14.02;7.05;;;;;;;10.83;100.00;63114.47;6260848;23;20583;-78
2023/04/17 02:55:05;;;;;;;8.63;6.38;;;;;;;10.72;100.00;63103.09;6259380;23;20287;-78
2023/04/17 02:57:32;;;;;;;7.60;5.35;;;;;;;10.70;100.00;63098.50;6258812;23;20419;-78
2023/04/17 03:00:01;;;;;;;10.68;6.15;;;;;;;10.69;100.00;63097.44;6262643;23;20181;-78
2023/04/17 03:02:29;;;;;;;10.20;6.38;;;;;;;10.75;100.00;63104.16;6260451;22;20451;-79
2023/04/17 03:04:56;;;;;;;11.95;6.15;;;;;;;10.79;100.00;63112.88;6261685;23;20228;-78
2023/04/17 03:07:26;;;;;;;9.60;5.70;;;;;;;10.87;100.00;63121.19;6262553;23;20192;-78
2023/04/17 03:09:56;;;;;;;12.55;6.80;;;;;;;10.90;100.00;63124.28;6258944;23;20175;-78
2023/04/17 03:12:23;;;;;;;16.15;6.88;;;;;;;10.83;100.00;63112.47;6261766;23;20199;-78
2023/04/17 03:14:51;;;;;;;10.48;6.65;;;;;;;10.82;100.00;63113.47;6261217;22;20263;-78
2023/04/17 03:17:19;;;;;;;9.18;6.55;;;;;;;10.79;100.00;63110.88;6260057;22;20513;-79
2023/04/17 03:19:46;;;;;;;7.45;5.85;;;;;;;10.84;100.00;63121.13;6262763;22;20168;-78
2023/04/17 03:22:12;;;;;;;9.68;6.28;;;;;;;10.75;100.00;63104.16;6258380;22;20200;-80
2023/04/17 03:24:40;;;;;;;9.10;5.95;;;;;;;10.76;100.00;63110.31;6260366;22;20169;-79
2023/04/17 03:27:08;;;;;;;11.05;6.68;;;;;;;10.73;100.00;63101.59;6261283;23;20552;-78
2023/04/17 03:29:35;;;;;;;12.80;5.72;;;;;;;10.74;100.00;63103.13;6260043;23;20173;-78
2023/04/17 03:32:02;;;;;;;13.82;5.32;;;;;;;10.75;100.00;63108.75;6257791;23;20188;-80
2023/04/17 03:34:29;;;;;;;8.75;5.40;;;;;;;10.73;100.00;63099.56;6262388;22;20169;-78
2023/04/17 03:36:55;;;;;;;11.65;5.30;;;;;;;10.69;100.00;63100.50;6258820;22;20204;-79
2023/04/17 03:39:22;;;;;;;4.97;4.57;;;;;;;10.57;100.00;63090.63;6257846;23;20175;-78
2023/04/17 03:41:49;;;;;;;11.18;5.38;;;;;;;10.66;100.00;63096.88;6259992;22;20188;-79
2023/04/17 03:44:18;;;;;;;8.30;6.15;;;;;;;10.69;100.00;63102.53;6261643;23;20184;-78
2023/04/17 03:46:45;;;;;;;10.45;5.60;;;;;;;10.71;100.00;63102.06;6258149;22;20192;-79
2023/04/17 03:49:12;;;;;;;8.55;6.05;;;;;;;10.66;100.00;63099.97;6258897;22;20173;-79
2023/04/17 03:51:41;;;;;;;9.32;5.70;;;;;;;10.76;100.00;63102.66;6261170;22;20176;-79
2023/04/17 03:54:08;;;;;;;11.10;5.85;;;;;;;10.80;100.00;63108.84;6262873;23;20180;-78
2023/04/17 03:56:35;;;;;;;7.55;5.43;;;;;;;10.62;100.00;63087.66;6261487;23;20239;-79
2023/04/17 03:59:03;;;;;;;11.13;5.65;;;;;;;10.61;100.00;63094.78;6258984;23;20204;-79
2023/04/17 04:01:32;;;;;;;6.35;5.70;;;;;;;10.56;100.00;63084.50;6259741;22;20169;-79
2023/04/17 04:03:59;;;;;;;9.85;5.80;;;;;;;10.57;100.00;63088.09;6259534;23;20168;-78
2023/04/17 04:06:28;;;;;;;11.25;5.82;;;;;;;10.47;100.00;63075.72;6258196;23;20169;-79
2023/04/17 04:08:55;;;;;;;7.65;5.82;;;;;;;10.42;100.00;63075.13;6263559;22;20366;-79
2023/04/17 04:11:23;;;;;;;8.05;5.63;;;;;;;10.46;100.00;63079.25;6260603;23;20200;-78
2023/04/17 04:13:49;;;;;;;9.50;6.30;;;;;;;10.40;100.00;63067.97;6261389;22;20195;-79
2023/04/17 04:16:16;;;;;;;8.18;5.60;;;;;;;10.47;100.00;63080.78;6258597;23;20201;-78
2023/04/17 04:18:45;;;;;;;6.95;5.68;;;;;;;10.48;100.00;63076.75;6256598;23;20192;-80
2023/04/17 04:21:12;;;;;;;9.02;5.68;;;;;;;10.57;100.00;63088.09;6258671;22;20512;-78
2023/04/17 04:23:40;;;;;;;10.82;5.82;;;;;;;10.48;100.00;63079.28;6259205;23;20301;-79
2023/04/17 04:26:07;;;;;;;9.25;6.53;;;;;;;10.73;100.00;63107.22;6263908;23;20196;-79
2023/04/17 04:28:34;;;;;;;8.80;6.30;;;;;;;10.85;100.00;63114.53;6262893;23;20195;-79
2023/04/17 04:31:01;;;;;;;7.90;5.80;;;;;;;10.83;100.00;63114.47;6258054;23;20218;-79
2023/04/17 04:33:28;;;;;;;7.10;5.88;;;;;;;10.76;100.00;63107.25;6259673;23;20200;-78
2023/04/17 04:35:59;;;;;;;10.52;6.53;;;;;;;10.78;100.00;63111.84;6261804;23;20209;-80
2023/04/17 04:38:29;;;;;;;8.48;5.25;;;;;;;10.85;100.00;63122.19;6262499;23;20211;-78
2023/04/17 04:41:00;;;;;;;9.13;7.18;;;;;;;10.81;100.00;63110.38;6263354;23;20470;-79
2023/04/17 04:43:28;;;;;;;11.95;6.97;;;;;;;10.90;100.00;63124.81;6264107;23;20184;-80
2023/04/17 04:45:56;;;;;;;12.57;7.55;;;;;;;10.82;100.00;63116.00;6260240;23;20165;-78
2023/04/17 04:48:22;;;;;;;12.00;6.65;;;;;;;10.90;100.00;63119.19;6261432;23;20196;-79
2023/04/17 04:50:50;;;;;;;7.82;5.13;;;;;;;10.88;100.00;63114.56;6259844;23;20177;-78
2023/04/17 04:53:18;;;;;;;10.20;5.85;;;;;;;10.94;100.00;63128.94;6263204;23;20375;-79
2023/04/17 04:55:46;;;;;;;8.52;5.95;;;;;;;10.95;100.00;63124.88;6264151;22;20196;-78
2023/04/17 04:58:13;;;;;;;8.63;5.95;;;;;;;11.04;100.00;63133.69;6261438;23;20253;-79
2023/04/17 05:00:40;;;;;;;9.45;6.72;;;;;;;11.15;100.00;63145.06;6260572;23;20175;-80
2023/04/17 05:03:07;;;;;;;11.93;6.05;;;;;;;11.10;100.00;63142.97;6259584;23;20189;-80
2023/04/17 05:05:34;;;;;;;11.80;5.97;;;;;;;11.09;100.00;63144.47;6260882;23;20188;-78
2023/04/17 05:08:02;;;;;;;7.95;5.60;;;;;;;11.08;100.00;63142.94;6263399;23;20188;-78
2023/04/17 05:10:30;;;;;;;7.68;5.35;;;;;;;11.18;100.00;63148.19;6262115;22;20173;-79
2023/04/17 05:12:57;;;;;;;9.20;4.95;;;;;;;11.30;100.00;63166.22;6264089;23;20192;-78
2023/04/17 05:15:24;;;;;;;10.45;5.90;;;;;;;11.19;100.00;63152.28;6262882;23;20260;-79
2023/04/17 05:17:51;;;;;;;8.40;6.07;;;;;;;11.26;100.00;63162.09;6261220;23;20193;-78
2023/04/17 05:20:19;;;;;;;8.88;6.07;;;;;;;11.29;100.00;63160.09;6262440;22;20214;-79
2023/04/17 05:22:46;;;;;;;11.95;5.40;;;;;;;11.54;100.00;63191.06;6260553;22;20220;-79
2023/04/17 05:25:13;;;;;;;6.32;5.53;;;;;;;11.54;100.00;63188.53;6263120;22;20183;-79
2023/04/17 05:27:41;;;;;;;7.07;5.10;;;;;;;11.47;100.00;63181.28;6261857;23;20212;-79
2023/04/17 05:30:09;;;;;;;7.53;5.10;;;;;;;11.37;100.00;63172.97;6261615;23;20540;-78
2023/04/17 05:32:36;;;;;;;7.10;5.53;;;;;;;11.30;100.00;63165.72;6260353;23;20249;-77
2023/04/17 05:35:03;;;;;;;7.38;5.30;;;;;;;11.33;100.00;63164.25;6263463;23;20169;-77
2023/04/17 05:37:30;;;;;;;9.80;5.20;;;;;;;11.41;100.00;63175.06;6260576;23;20279;-77
2023/04/17 05:39:59;;;;;;;9.10;4.85;;;;;;;11.45;100.00;63176.13;6262107;22;20169;-79
2023/04/17 05:42:26;;;;;;;9.50;6.90;;;;;;;11.43;100.00;63177.13;6262524;22;20395;-79
2023/04/17 05:44:54;;;;;;;6.82;5.85;;;;;;;11.43;100.00;63179.16;6260095;23;20169;-79
2023/04/17 05:47:21;;;;;;;5.88;4.90;;;;;;;11.39;100.00;63170.44;6260989;23;20215;-78
2023/04/17 05:49:50;;;;;;;10.23;5.93;;;;;;;11.36;100.00;63169.88;6262197;22;20450;-79
2023/04/17 05:52:17;;;;;;;12.15;6.55;;;;;;;11.36;100.00;63171.91;6261871;23;20189;-79
2023/04/17 05:54:44;;;;;;;7.45;6.55;;;;;;;11.42;99.90;63178.66;6260515;23;20175;-79
2023/04/17 05:57:12;;;;;;;10.63;6.03;;;;;;;11.62;98.79;63199.38;6262958;22;20205;-79
2023/04/17 05:59:39;;;;;;;7.70;6.10;;;;;;;11.62;99.42;63196.31;6261093;22;20176;-79
2023/04/17 06:02:07;;;;;;;6.93;6.22;;;;;;;11.80;99.39;63214.47;6261007;22;20203;-78
2023/04/17 06:04:34;;;;;;;10.15;6.25;;;;;;;11.96;98.44;63231.53;6260751;23;20172;-79
2023/04/17 06:07:04;;;;;;;9.25;6.50;;;;;;;12.11;98.14;63246.56;6261092;23;20198;-79
2023/04/17 06:09:32;;;;;;;9.23;5.95;;;;;;;12.07;97.54;63247.53;6261501;23;20224;-79
2023/04/17 06:11:59;;;;;;;6.55;5.90;;;;;;;12.25;97.07;63261.09;6261869;23;20193;-78
2023/04/17 06:14:26;;;;;;;9.30;5.43;;;;;;;12.21;96.80;63259.50;6264134;22;20168;-79
2023/04/17 06:16:54;;;;;;;7.65;5.72;;;;;;;11.94;97.93;63232.03;6260591;23;20231;-79
2023/04/17 06:19:23;;;;;;;7.90;6.95;;;;;;;11.79;99.96;63208.31;6262690;22;20458;-78
2023/04/17 06:21:50;;;;;;;10.55;6.72;;;;;;;11.93;99.72;63227.91;6262239;22;20192;-78
2023/04/17 06:24:17;;;;;;;8.75;6.45;;;;;;;12.10;98.95;63248.09;6260378;22;20210;-79
2023/04/17 06:26:44;;;;;;;6.63;5.93;;;;;;;12.01;99.58;63236.22;6264662;23;20189;-79
2023/04/17 06:29:12;;;;;;;10.80;6.78;;;;;;;12.14;98.51;63247.66;6260725;23;20359;-79
2023/04/17 06:31:39;;;;;;;8.18;6.82;;;;;;;12.36;97.49;63275.56;6261726;23;20199;-79
2023/04/17 06:34:06;;;;;;;13.15;6.80;;;;;;;12.49;96.49;63285.97;6263574;23;20173;-79
2023/04/17 06:36:35;;;;;;;9.93;7.13;;;;;;;12.48;96.49;63285.44;6261644;23;20204;-80
2023/04/17 06:39:02;;;;;;;7.63;6.30;;;;;;;12.79;95.91;63314.50;6262328;23;20173;-79
2023/04/17 06:41:29;;;;;;;8.80;6.63;;;;;;;13.03;95.13;63339.41;6264422;23;20226;-79
2023/04/17 06:43:56;;;;;;;15.80;6.95;;;;;;;13.22;94.74;63361.69;6261562;23;20195;-79
2023/04/17 06:46:23;;;;;;;11.85;6.55;;;;;;;13.22;94.87;63361.19;6262310;22;20164;-79
2023/04/17 06:48:51;;;;;;;6.82;6.07;;;;;;;13.12;93.08;63353.34;6263652;23;20224;-79
2023/04/17 06:51:19;;;;;;;10.63;6.60;;;;;;;13.27;91.09;63368.94;6261733;23;20399;-80
2023/04/17 06:53:48;;;;;;;8.23;6.90;;;;;;;13.33;88.63;63372.59;6263073;22;20172;-79
2023/04/17 06:56:15;;;;;;;13.43;7.15;;;;;;;13.11;87.14;63347.72;6264189;23;20220;-79
2023/04/17 06:58:43;;;;;;;8.40;6.45;;;;;;;13.14;87.12;63350.84;6261010;23;20192;-79
2023/04/17 07:01:11;;;;;;;7.25;6.55;;;;;;;13.04;88.51;63343.03;6261581;23;20176;-79
2023/04/17 07:03:39;;;;;;;9.82;6.50;;;;;;;13.16;88.12;63354.94;6263629;22;20189;-77
2023/04/17 07:06:06;;;;;;;9.70;6.95;;;;;;;13.10;88.78;63349.25;6261003;22;20169;-78
2023/04/17 07:08:33;;;;;;;8.85;6.55;;;;;;;13.11;89.89;63350.28;6261463;23;20188;-80
2023/04/17 07:11:02;;;;;;;9.27;6.47;;;;;;;13.05;90.25;63340.97;6263013;23;20173;-80
2023/04/17 07:13:30;;;;;;;12.27;6.68;;;;;;;13.25;89.79;63366.84;6262082;23;20198;-79
2023/04/17 07:15:59;;;;;;;8.32;7.00;;;;;;;13.42;90.15;63382.44;6261832;22;20177;-80
2023/04/17 07:18:28;;;;;;;6.50;5.82;;;;;;;13.62;86.69;63405.22;6262369;23;20188;-79
2023/04/17 07:20:55;;;;;;;10.18;5.88;;;;;;;13.53;86.38;63396.41;6260103;23;20172;-78
2023/04/17 07:23:23;;;;;;;8.95;6.22;;;;;;;13.75;85.54;63416.69;6260326;22;20439;-79
2023/04/17 07:25:49;;;;;;;10.43;6.60;;;;;;;14.07;83.54;63454.50;6262790;22;20490;-80
2023/04/17 07:28:18;;;;;;;8.88;5.97;;;;;;;14.00;83.01;63439.56;6261888;22;20192;-78
2023/04/17 07:30:46;;;;;;;6.43;5.80;;;;;;;14.28;81.83;63471.22;6261203;22;20165;-79
2023/04/17 07:33:13;;;;;;;8.93;5.63;;;;;;;14.46;78.90;63489.38;6265231;23;20565;-79
2023/04/17 07:35:41;;;;;;;8.55;6.13;;;;;;;14.77;77.27;63524.16;6261408;23;20203;-79
2023/04/17 07:38:08;;;;;;;9.35;6.10;;;;;;;14.77;76.93;63521.59;6260989;22;20232;-81
2023/04/17 07:40:36;;;;;;;9.63;6.32;;;;;;;15.09;76.47;63552.25;6264331;23;20668;-78
2023/04/17 07:43:03;;;;;;;9.85;6.07;;;;;;;15.18;78.60;63561.63;6260726;23;20247;-79
2023/04/17 07:45:32;;;;;;;11.52;6.13;;;;;;;14.94;78.75;63541.81;6263683;23;20172;-78
2023/04/17 07:47:59;;;;;;;13.68;7.18;;;;;;;15.22;79.34;63563.19;6260369;23;20211;-79
2023/04/17 07:50:26;;;;;;;7.95;6.03;;;;;;;14.93;81.11;63538.72;6261220;23;20175;-78
2023/04/17 07:52:53;;;;;;;10.48;5.82;;;;;;;14.89;81.79;63537.13;6260800;23;20231;-78
2023/04/17 07:55:20;;;;;;;7.75;6.22;;;;;;;15.01;81.68;63546.53;6260612;23;20218;-79
2023/04/17 07:57:50;;;;;;;7.80;5.78;;;;;;;14.81;82.27;63525.72;6261381;23;20400;-79
2023/04/17 08:00:18;;;;;;;7.13;6.00;;;;;;;14.82;81.36;63529.84;6262348;23;20161;-78
2023/04/17 08:02:47;;;;;;;8.38;5.88;;;;;;;14.88;78.63;63536.09;6260572;22;20195;-80
2023/04/17 08:05:14;;;;;;;6.50;5.85;;;;;;;15.01;78.86;63543.97;6261939;22;20453;-80
2023/04/17 08:07:42;;;;;;;9.57;5.78;;;;;;;14.78;78.35;63522.63;6262091;23;20532;-78
2023/04/17 08:10:09;;;;;;;9.27;5.95;;;;;;;14.70;81.04;63516.88;6264663;23;20175;-79
2023/04/17 08:12:36;;;;;;;11.15;6.95;;;;;;;14.77;81.55;63524.16;6264340;23;20207;-80
2023/04/17 08:15:04;;;;;;;8.75;6.20;;;;;;;14.64;83.68;63508.59;6266423;22;20206;-79
2023/04/17 08:17:32;;;;;;;11.70;6.30;;;;;;;14.73;83.52;63520.53;6265526;22;20365;-80
2023/04/17 08:20:01;;;;;;;7.32;6.03;;;;;;;14.91;83.65;63531.00;6263123;23;20169;-79
2023/04/17 08:22:28;;;;;;;8.02;6.38;;;;;;;14.99;85.27;63544.97;6262190;23;20211;-79
2023/04/17 08:24:57;;;;;;;13.43;6.70;;;;;;;14.85;84.83;63529.91;6265418;23;20183;-79
2023/04/17 08:27:24;;;;;;;7.38;6.13;;;;;;;14.93;84.00;63538.19;6264816;23;20244;-79
2023/04/17 08:29:52;;;;;;;9.15;5.88;;;;;;;14.59;86.48;63503.41;6265268;23;20481;-77
2023/04/17 08:32:19;;;;;;;11.02;7.03;;;;;;;14.27;91.88;63467.59;6264395;23;20212;-79
2023/04/17 08:34:46;;;;;;;10.23;7.32;;;;;;;14.26;95.34;63473.72;6263460;23;20172;-79
2023/04/17 08:37:15;;;;;;;11.43;6.82;;;;;;;14.07;99.19;63451.41;6262803;23;20216;-79
2023/04/17 08:39:42;;;;;;;8.13;6.95;;;;;;;13.98;100.00;63439.53;6263443;23;20375;-77
2023/04/17 08:42:11;;;;;;;12.23;8.20;;;;;;;13.89;100.00;63433.78;6263024;23;20189;-80
2023/04/17 08:44:38;;;;;;;14.50;7.75;;;;;;;13.97;100.00;63441.03;6264754;23;20470;-80
2023/04/17 08:47:07;;;;;;;11.38;7.03;;;;;;;13.83;100.00;63424.47;6263502;23;20189;-79
2023/04/17 08:49:36;;;;;;;11.50;7.35;;;;;;;13.68;100.00;63409.41;6261901;22;20169;-79
2023/04/17 08:52:03;;;;;;;8.50;7.10;;;;;;;13.66;100.00;63411.94;6263204;22;20193;-80
2023/04/17 08:54:34;;;;;;;17.77;8.52;;;;;;;13.76;100.00;63420.28;6264975;23;20173;-79
2023/04/17 08:57:03;;;;;;;7.45;6.75;;;;;;;14.03;100.00;63442.66;6263320;23;20220;-80
2023/04/17 08:59:30;;;;;;;9.45;6.53;;;;;;;14.53;100.00;63499.72;6268737;22;20168;-79
2023/04/17 09:02:02;;;;;;;7.32;5.28;;;;;;;14.73;98.21;63525.66;6264495;23;20199;-79
2023/04/17 09:04:37;;;;;;;7.68;5.43;;;;;;;14.55;92.13;63499.25;6260894;23;20207;-79
2023/04/17 09:07:04;;;;;;;6.88;5.20;;;;;;;14.88;91.95;63538.66;6263983;22;20208;-80
2023/04/17 09:09:51;;;;;;;5.22;4.72;;;;;;;14.66;87.59;63510.16;6263020;23;20485;-80
2023/04/17 09:12:18;;;;;;;28.73;10.57;;;;;;;14.62;85.53;63511.13;6264321;23;20197;-80
2023/04/17 09:14:46;;;;;;;32.35;19.25;;;;;;;14.78;85.02;63525.19;6267229;23;20168;-79
2023/04/17 09:17:17;;;;;;;14.48;10.38;;;;;;;15.11;82.27;63556.91;6263143;23;20211;-80
2023/04/17 09:20:06;;;;;;;8.25;6.07;;;;;;;15.45;79.21;63592.25;6263696;23;20168;-79
2023/04/17 09:22:34;;;;;;;5.82;5.25;;;;;;;15.60;75.40;63604.78;6265175;23;20227;-80
2023/04/17 09:25:02;;;;;;;5.53;4.47;;;;;;;15.21;77.38;63566.78;6262911;23;20191;-80
2023/04/17 09:27:30;;;;;;;5.05;4.35;;;;;;;15.12;76.53;63565.13;6263604;22;20251;-80
2023/04/17 09:30:02;;;;;;;5.00;4.60;;;;;;;15.11;77.16;63562.03;6264974;22;20168;-79
2023/04/17 09:32:30;;;;;;;5.00;4.60;;;;;;;14.39;78.34;63482.63;6263453;23;20216;-79
2023/04/17 09:35:00;;;;;;;5.05;4.55;;;;;;;14.47;79.62;63492.97;6262787;23;20175;-80
2023/04/17 09:37:48;;;;;;;5.38;4.82;;;;;;;14.34;82.30;63474.38;6263733;22;20204;-80
2023/04/17 09:40:17;;;;;;;5.20;4.68;;;;;;;14.20;88.02;63462.38;6263376;23;20188;-79
2023/04/17 09:42:58;;;;;;;5.53;4.88;;;;;;;14.17;92.73;63462.31;6265463;23;20204;-79
2023/04/17 09:45:28;;;;;;;7.47;4.78;;;;;;;13.49;94.71;63392.28;6266873;23;20220;-80
2023/04/17 09:47:55;;;;;;;5.78;4.93;;;;;;;13.19;98.51;63358.06;6264674;23;20255;-77
2023/04/17 09:50:23;;;;;;;6.95;5.45;;;;;;;12.92;100.00;63330.56;6265035;22;20173;-80
2023/04/17 09:52:51;;;;;;;7.70;5.13;;;;;;;12.74;100.00;63314.97;6263130;23;20246;-79
2023/04/17 09:55:22;;;;;;;6.03;5.43;;;;;;;12.94;100.00;63332.63;6261771;22;20179;-79
2023/04/17 09:57:52;;;;;;;9.18;5.90;;;;;;;13.19;100.00;63358.59;6263472;23;20200;-79
2023/04/17 10:00:20;;;;;;;7.10;4.93;;;;;;;13.43;97.90;63382.97;6266542;23;20173;-80
2023/04/17 10:02:50;;;;;;;6.50;5.47;;;;;;;13.25;95.11;63369.94;6264189;23;20189;-79
2023/04/17 10:05:18;;;;;;;7.40;5.93;;;;;;;13.26;92.57;63362.75;6262113;23;20169;-79
2023/04/17 10:07:46;;;;;;;8.18;4.63;;;;;;;13.37;90.48;63379.81;6262134;23;20181;-79
2023/04/17 10:10:21;;;;;;;6.25;5.38;;;;;;;13.28;89.85;63367.41;6263451;23;20168;-80
2023/04/17 10:12:52;;;;;;;10.52;5.50;;;;;;;13.23;89.36;63362.75;6263272;23;20192;-79
2023/04/17 10:15:20;;;;;;;7.43;5.05;;;;;;;13.43;91.19;63380.41;6267190;23;20172;-80
2023/04/17 10:17:48;;;;;;;5.10;4.65;;;;;;;13.53;87.84;63398.97;6262715;23;20256;-80
2023/04/17 10:20:36;;;;;;;4.80;4.30;;;;;;;13.72;84.34;63413.03;6262444;22;20173;-79
2023/04/17 10:23:29;;;;;;;6.57;5.05;;;;;;;13.58;85.03;63401.09;6263913;22;20204;-79
2023/04/17 10:26:44;;;;;;;4.97;4.57;;;;;;;13.54;82.62;63396.94;6261895;23;20210;-77
2023/04/17 10:29:12;;;;;;;7.63;4.97;;;;;;;13.60;81.33;63406.25;6265519;23;20478;-79
2023/04/17 10:32:14;;;;;;;6.18;4.88;;;;;;;13.68;82.13;63414.53;6262012;22;20161;-79
2023/04/17 10:34:41;;;;;;;6.13;4.80;;;;;;;13.95;80.55;63436.94;6139859;23;20187;-79
2023/04/17 10:37:13;;;;;;;8.35;6.07;;;;;;;14.29;79.36;63472.25;6143892;23;20203;-79
2023/04/17 10:39:59;;;;;;;5.97;5.40;;;;;;;14.53;76.45;63501.78;6199083;22;20221;-81
2023/04/17 10:42:31;;;;;;;8.88;5.25;;;;;;;14.85;72.72;63532.47;6266752;23;20180;-79
2023/04/17 10:45:04;;;;;;;6.13;4.97;;;;;;;15.16;71.22;63564.66;6262319;23;20176;-79
2023/04/17 10:47:32;;;;;;;6.07;5.43;;;;;;;15.84;68.70;63632.78;6261435;23;20228;-79
2023/04/17 10:50:02;;;;;;;5.68;5.18;;;;;;;15.58;63.53;63605.75;6266403;23;20195;-80
2023/04/17 10:52:38;;;;;;;7.05;5.25;;;;;;;15.40;64.74;63589.09;6264074;23;20196;-79
2023/04/17 10:55:07;;;;;;;6.65;5.90;;;;;;;15.14;66.07;63556.94;6261851;23;20385;-78
2023/04/17 10:57:59;;;;;;;7.28;5.85;;;;;;;15.33;68.87;63584.38;6263140;23;20211;-80
2023/04/17 11:00:36;;;;;;;6.03;5.30;;;;;;;15.46;66.08;63592.78;6262140;23;20161;-81
2023/04/17 11:03:05;;;;;;;6.38;5.78;;;;;;;15.77;62.73;63625.00;6262080;23;20247;-78
2023/04/17 11:05:34;;;;;;;6.40;5.82;;;;;;;16.12;62.31;63659.34;6265952;23;20203;-78
2023/04/17 11:08:01;;;;;;;7.32;5.20;;;;;;;16.17;62.25;63669.69;6260862;23;20526;-79
2023/04/17 11:10:30;;;;;;;5.03;4.63;;;;;;;15.96;60.67;63645.28;6263489;23;20172;-80
2023/04/17 11:12:56;;;;;;;7.13;4.95;;;;;;;15.51;62.06;63600.56;6264050;22;20226;-79
2023/04/17 11:15:28;;;;;;;5.45;4.95;;;;;;;15.22;61.72;63567.81;6262152;23;20172;-79
2023/04/17 11:17:57;;;;;;;7.05;6.35;;;;;;;15.45;63.16;63594.81;6262797;23;20254;-78
2023/04/17 11:20:25;;;;;;;6.10;5.57;;;;;;;15.47;62.44;63593.81;6262172;23;20168;-79
2023/04/17 11:22:52;;;;;;;9.88;6.00;;;;;;;15.74;63.37;63619.84;6263479;22;20196;-79
2023/04/17 11:25:21;;;;;;;5.90;5.35;;;;;;;15.81;60.31;63629.16;6263258;22;20172;-79
2023/04/17 11:27:51;;;;;;;6.57;5.82;;;;;;;15.62;61.88;63609.41;6260896;22;20252;-79
2023/04/17 11:30:29;;;;;;;6.35;5.75;;;;;;;15.78;59.91;63633.75;6262311;23;20172;-79
2023/04/17 11:32:59;;;;;;;7.43;5.90;;;;;;;15.82;58.63;63635.34;6263356;23;20249;-79